Time;durP1;ratioP1;P1;durP2;ratioP2;P2;SDS_P1;SDS_P2;PMS_P1;PMS_P2;Temp;Humidity;BMP_temperature;BMP_pressure;BME280_temperature;BME280_humidity;BME280_pressure;Samples;Min_cycle;Max_cycle;Signal;HPM_P1;HPM_P2
2022/01/28 00:01:00;;;;;;;18.43;2.73;;;5.30;99.90;;;;;;5178408;28;20434;-52
2022/01/28 00:03:08;;;;;;;7.93;2.60;;;5.30;99.90;;;;;;5199620;23;20521;-49
2022/01/28 00:05:39;;;;;;;13.63;3.30;;;5.30;99.90;;;;;;5200223;28;20515;-51
2022/01/28 00:08:09;;;;;;;17.23;2.90;;;5.40;99.90;;;;;;5203031;28;20597;-50
2022/01/28 00:10:40;;;;;;;16.70;2.23;;;5.30;99.90;;;;;;5202685;28;20553;-48
2022/01/28 00:13:23;;;;;;;26.03;3.70;;;5.30;99.90;;;;;;5198771;28;20202;-49
2022/01/28 00:38:26;;;;;;;13.73;4.03;;;5.40;99.90;;;;;;5202985;28;21053;-49
2022/01/28 00:40:57;;;;;;;3.53;2.20;;;5.30;99.90;;;;;;5180539;28;20551;-49
2022/01/28 00:43:27;;;;;;;8.33;2.53;;;5.30;99.90;;;;;;5185020;28;20917;-48
2022/01/28 00:45:58;;;;;;;9.00;2.80;;;5.40;99.90;;;;;;5184718;28;20243;-47
2022/01/28 00:48:28;;;;;;;15.53;3.23;;;5.40;99.90;;;;;;5204879;28;20221;-48
2022/01/28 00:50:59;;;;;;;13.80;2.80;;;5.40;99.90;;;;;;5200418;28;20185;-48
2022/01/28 00:53:29;;;;;;;15.70;3.87;;;5.40;99.90;;;;;;5179109;28;20202;-48
2022/01/28 00:56:00;;;;;;;13.23;3.23;;;5.30;99.90;;;;;;5200825;28;20197;-48
2022/01/28 00:58:30;;;;;;;13.63;3.30;;;5.30;99.90;;;;;;5185297;28;20178;-48
2022/01/28 01:01:01;;;;;;;6.80;2.50;;;5.40;99.90;;;;;;5205812;28;20267;-49
2022/01/28 01:03:32;;;;;;;19.00;4.17;;;5.30;99.90;;;;;;5206924;28;20213;-47
2022/01/28 01:06:02;;;;;;;20.30;4.00;;;5.40;99.90;;;;;;5201945;28;20181;-48
2022/01/28 01:08:33;;;;;;;6.73;2.40;;;5.30;99.90;;;;;;5189396;28;20189;-49
2022/01/28 01:11:05;;;;;;;10.03;2.20;;;5.30;99.90;;;;;;5201895;28;20195;-50
2022/01/28 01:13:39;;;;;;;14.83;2.43;;;5.30;99.90;;;;;;5202564;28;20201;-49
2022/01/28 01:16:12;;;;;;;24.73;4.17;;;5.30;99.90;;;;;;5204787;28;20435;-47
2022/01/28 01:21:22;;;;;;;16.53;2.90;;;5.30;99.90;;;;;;5207428;28;20813;-47
2022/01/28 01:23:55;;;;;;;13.70;2.93;;;5.20;99.90;;;;;;5197302;28;20545;-48
2022/01/28 01:26:32;;;;;;;13.30;2.80;;;5.20;99.90;;;;;;5178190;28;20424;-48
2022/01/28 01:29:11;;;;;;;14.43;3.00;;;5.30;99.90;;;;;;5207748;28;20432;-48
2022/01/28 01:31:43;;;;;;;14.50;2.80;;;5.30;99.90;;;;;;5207872;28;20970;-48
2022/01/28 01:34:20;;;;;;;10.63;3.07;;;5.30;99.90;;;;;;5204111;28;20584;-49
2022/01/28 01:36:50;;;;;;;9.83;2.40;;;5.30;99.90;;;;;;5191027;28;20525;-49
2022/01/28 01:39:24;;;;;;;12.57;2.63;;;5.30;99.90;;;;;;5200180;28;20897;-50
2022/01/28 01:42:00;;;;;;;11.93;2.47;;;5.30;99.90;;;;;;5202029;28;20173;-48
2022/01/28 01:52:35;;;;;;;9.17;2.70;;;5.40;99.90;;;;;;5206169;28;20444;-47
2022/01/28 01:55:07;;;;;;;10.03;3.20;;;5.30;99.90;;;;;;5203157;28;20431;-48
2022/01/28 01:57:38;;;;;;;10.67;2.80;;;5.30;99.90;;;;;;5188671;28;20276;-49
2022/01/28 02:00:09;;;;;;;13.53;3.47;;;5.30;99.90;;;;;;5207568;28;20435;-48
2022/01/28 02:02:40;;;;;;;15.10;2.83;;;5.20;99.90;;;;;;5206182;28;20472;-48
2022/01/28 02:05:10;;;;;;;8.33;2.40;;;5.30;99.90;;;;;;5201746;28;20569;-49
2022/01/28 02:07:45;;;;;;;9.87;3.13;;;5.30;99.90;;;;;;5184491;28;20678;-48
2022/01/28 02:10:15;;;;;;;12.00;2.70;;;5.30;99.90;;;;;;5187997;28;20551;-48
2022/01/28 02:12:48;;;;;;;11.73;2.90;;;5.20;99.90;;;;;;5156974;28;20455;-51
2022/01/28 02:15:19;;;;;;;19.63;3.00;;;5.30;99.90;;;;;;5204806;28;20224;-48
2022/01/28 02:17:50;;;;;;;10.40;3.00;;;5.30;99.90;;;;;;5200213;28;20444;-49
2022/01/28 02:20:30;;;;;;;8.87;2.90;;;5.20;99.90;;;;;;5185821;28;20435;-47
2022/01/28 02:23:02;;;;;;;11.50;3.27;;;5.20;99.90;;;;;;5201748;28;20202;-47
2022/01/28 02:25:33;;;;;;;12.73;3.73;;;5.20;99.90;;;;;;5198597;28;20792;-48
2022/01/28 02:28:07;;;;;;;6.47;2.60;;;5.20;99.90;;;;;;5198999;28;20433;-48
2022/01/28 02:30:38;;;;;;;12.70;4.17;;;5.20;99.90;;;;;;5205654;28;20445;-50
2022/01/28 02:33:20;;;;;;;18.00;3.57;;;5.20;99.90;;;;;;5205745;28;20533;-48
2022/01/28 02:35:51;;;;;;;10.50;2.60;;;5.20;99.90;;;;;;5198045;28;20205;-47
2022/01/28 02:38:23;;;;;;;6.73;2.40;;;5.20;99.90;;;;;;5187487;28;20944;-49
2022/01/28 02:40:59;;;;;;;17.33;3.70;;;5.20;99.90;;;;;;5188983;28;20536;-50
2022/01/28 02:43:40;;;;;;;13.73;4.43;;;5.20;99.90;;;;;;5205532;28;20515;-50
2022/01/28 02:46:14;;;;;;;16.57;3.30;;;5.20;99.90;;;;;;5201204;28;20436;-47
2022/01/28 02:48:55;;;;;;;13.40;3.40;;;5.30;99.90;;;;;;5202410;28;20427;-48
2022/01/28 02:51:25;;;;;;;23.30;4.00;;;5.20;99.90;;;;;;5185121;28;20435;-48
2022/01/28 02:53:59;;;;;;;7.73;2.70;;;5.10;99.90;;;;;;5186176;28;20468;-47
2022/01/28 02:59:01;;;;;;;22.17;3.73;;;5.20;99.90;;;;;;5199664;28;20440;-48
2022/01/28 03:01:31;;;;;;;24.63;4.10;;;5.10;99.90;;;;;;5188976;28;20536;-50
2022/01/28 03:04:04;;;;;;;10.97;3.00;;;5.10;99.90;;;;;;5205157;28;20469;-48
2022/01/28 03:06:34;;;;;;;17.17;3.50;;;5.10;99.90;;;;;;5202943;28;20709;-48
2022/01/28 03:09:16;;;;;;;23.57;3.60;;;5.00;99.90;;;;;;5200643;28;20539;-47
2022/01/28 03:11:59;;;;;;;12.77;3.20;;;5.00;99.90;;;;;;5196262;28;20194;-50
2022/01/28 03:14:38;;;;;;;26.37;3.27;;;5.00;99.90;;;;;;5204611;28;20542;-47
2022/01/28 03:17:15;;;;;;;27.53;3.93;;;5.00;99.90;;;;;;5185538;28;20435;-48
2022/01/28 03:19:51;;;;;;;20.50;3.67;;;4.90;99.90;;;;;;5202526;28;20448;-48
2022/01/28 03:22:24;;;;;;;45.57;4.37;;;5.00;99.90;;;;;;5200261;28;20465;-48
2022/01/28 03:24:58;;;;;;;22.80;3.40;;;5.00;99.90;;;;;;5188345;28;20473;-48
2022/01/28 03:30:11;;;;;;;11.30;2.93;;;5.00;99.90;;;;;;5203311;28;20475;-46
2022/01/28 03:32:41;;;;;;;22.73;3.40;;;5.00;99.90;;;;;;5204591;28;20497;-48
2022/01/28 03:35:15;;;;;;;23.70;3.67;;;5.00;99.90;;;;;;5185659;28;20182;-48
2022/01/28 03:37:45;;;;;;;14.87;3.30;;;5.10;99.90;;;;;;5194099;28;20187;-49
2022/01/28 03:40:20;;;;;;;12.13;3.33;;;5.00;99.90;;;;;;5202540;28;20432;-47
2022/01/28 03:42:50;;;;;;;26.47;3.37;;;5.10;99.90;;;;;;5203050;28;20311;-47
2022/01/28 03:45:21;;;;;;;21.67;4.30;;;5.00;99.90;;;;;;5195460;28;20900;-50
2022/01/28 03:47:51;;;;;;;22.50;3.30;;;5.00;99.90;;;;;;5194979;28;20190;-48
2022/01/28 03:50:22;;;;;;;17.03;2.90;;;5.00;99.90;;;;;;5200905;28;20652;-48
2022/01/28 03:52:52;;;;;;;13.43;3.13;;;5.10;99.90;;;;;;5200244;28;20217;-48
2022/01/28 03:55:23;;;;;;;17.90;3.73;;;5.10;99.90;;;;;;5187470;28;20185;-47
2022/01/28 03:57:53;;;;;;;13.30;2.63;;;5.10;99.90;;;;;;5200687;28;20202;-49
2022/01/28 04:00:27;;;;;;;18.93;3.23;;;5.10;99.90;;;;;;5165521;28;20525;-49
2022/01/28 04:03:07;;;;;;;14.60;3.80;;;5.10;99.90;;;;;;5202850;28;20623;-48
2022/01/28 04:11:35;;;;;;;19.73;3.50;;;5.10;99.90;;;;;;5197380;28;21020;-48
2022/01/28 04:14:13;;;;;;;17.80;3.87;;;5.10;99.90;;;;;;5196261;28;20540;-49
2022/01/28 04:19:34;;;;;;;20.03;3.83;;;5.10;99.90;;;;;;5200797;28;20802;-49
2022/01/28 04:22:05;;;;;;;19.63;3.00;;;5.10;99.90;;;;;;5186799;28;20455;-49
2022/01/28 04:24:35;;;;;;;18.73;2.80;;;5.10;99.90;;;;;;5199086;28;20469;-48
2022/01/28 04:27:06;;;;;;;21.73;2.83;;;5.10;99.90;;;;;;5199671;28;20192;-48
2022/01/28 04:29:36;;;;;;;11.73;2.60;;;5.20;99.90;;;;;;5200123;28;20196;-48
2022/01/28 04:32:08;;;;;;;6.60;2.57;;;5.10;99.90;;;;;;5199292;28;20185;-49
2022/01/28 04:34:38;;;;;;;16.53;3.30;;;5.10;99.90;;;;;;5201660;28;20631;-49
2022/01/28 04:37:17;;;;;;;8.60;2.93;;;5.10;99.90;;;;;;5192218;28;20458;-48
2022/01/28 04:40:07;;;;;;;17.77;3.53;;;5.10;99.90;;;;;;5203385;28;20234;-48
2022/01/28 04:42:54;;;;;;;7.53;2.77;;;5.10;99.90;;;;;;5185428;28;20452;-48
2022/01/28 04:48:10;;;;;;;24.40;3.70;;;5.20;99.90;;;;;;5202559;28;20440;-49
2022/01/28 05:09:54;;;;;;;13.80;3.57;;;5.20;99.90;;;;;;5197215;28;20454;-50
2022/01/28 05:26:32;;;;;;;33.07;3.90;;;5.20;99.90;;;;;;5199361;28;20428;-49
2022/01/28 05:29:04;;;;;;;13.50;3.23;;;5.20;99.90;;;;;;5203436;28;20177;-50
2022/01/28 05:31:34;;;;;;;18.93;3.37;;;5.20;99.90;;;;;;5172897;28;20476;-49
2022/01/28 05:34:05;;;;;;;21.37;3.33;;;5.30;99.90;;;;;;5186340;28;20455;-49
2022/01/28 05:36:35;;;;;;;12.20;3.40;;;5.30;99.90;;;;;;5184008;28;20180;-55
2022/01/28 05:39:06;;;;;;;13.77;3.07;;;5.30;99.90;;;;;;5180906;28;20590;-50
2022/01/28 05:41:36;;;;;;;16.97;3.70;;;5.30;99.90;;;;;;5182326;28;20244;-48
2022/01/28 05:44:07;;;;;;;12.53;2.90;;;5.30;99.90;;;;;;5183885;28;20222;-49
2022/01/28 05:46:38;;;;;;;22.03;3.47;;;5.30;99.90;;;;;;5200575;28;20673;-49
2022/01/28 05:49:08;;;;;;;19.50;4.00;;;5.20;99.90;;;;;;5195619;28;20202;-48
2022/01/28 05:51:39;;;;;;;8.20;3.50;;;5.20;99.90;;;;;;5203214;28;20214;-49
2022/01/28 05:54:10;;;;;;;18.03;2.87;;;5.30;99.90;;;;;;5203141;28;21485;-50
2022/01/28 05:56:41;;;;;;;11.63;2.63;;;5.20;99.90;;;;;;5206785;28;20460;-47
2022/01/28 05:59:12;;;;;;;34.63;4.50;;;5.30;99.90;;;;;;5173302;28;20177;-49
2022/01/28 06:01:42;;;;;;;16.73;4.70;;;5.30;99.90;;;;;;5196011;28;20268;-48
2022/01/28 06:04:15;;;;;;;16.17;4.17;;;5.30;99.90;;;;;;5197497;23;20289;-49
2022/01/28 06:06:45;;;;;;;13.43;3.17;;;5.30;99.90;;;;;;5168346;28;20219;-48
2022/01/28 06:09:16;;;;;;;17.13;4.17;;;5.30;99.90;;;;;;5161939;28;20480;-50
2022/01/28 06:11:47;;;;;;;20.50;4.20;;;5.30;99.90;;;;;;5176904;28;20201;-50
2022/01/28 06:14:17;;;;;;;25.37;3.40;;;5.30;99.90;;;;;;5160183;28;20206;-49
2022/01/28 06:16:48;;;;;;;16.77;3.20;;;5.30;99.90;;;;;;5144413;28;20201;-51
2022/01/28 06:19:18;;;;;;;15.77;2.90;;;5.20;99.90;;;;;;5156043;28;20186;-51
2022/01/28 06:21:49;;;;;;;17.73;3.30;;;5.30;99.90;;;;;;5168548;28;20191;-50
2022/01/28 06:24:19;;;;;;;13.33;3.20;;;5.30;99.90;;;;;;5165156;28;20215;-50
2022/01/28 06:26:50;;;;;;;22.73;3.67;;;5.30;99.90;;;;;;5158369;28;20279;-49
2022/01/28 06:29:20;;;;;;;17.67;3.40;;;5.30;99.90;;;;;;5148937;28;20184;-48
2022/01/28 06:31:51;;;;;;;25.83;3.80;;;5.20;99.90;;;;;;5164010;28;20188;-48
2022/01/28 06:34:22;;;;;;;23.00;4.60;;;5.30;99.90;;;;;;5163789;28;20274;-49
2022/01/28 06:36:52;;;;;;;27.53;4.07;;;5.30;99.90;;;;;;5166746;28;20264;-49
2022/01/28 06:39:23;;;;;;;17.33;4.73;;;5.30;99.90;;;;;;5156798;28;20265;-49
2022/01/28 06:41:53;;;;;;;21.90;4.33;;;5.30;99.90;;;;;;5133583;28;20205;-51
2022/01/28 06:44:25;;;;;;;26.33;4.27;;;5.30;99.90;;;;;;5155583;28;20222;-51
2022/01/28 06:46:55;;;;;;;15.07;3.77;;;5.30;99.90;;;;;;5155969;28;20898;-51
2022/01/28 06:49:26;;;;;;;14.53;3.63;;;5.30;99.90;;;;;;5160631;28;20435;-50
2022/01/28 06:51:57;;;;;;;20.30;3.80;;;5.20;99.90;;;;;;5124714;28;20183;-51
2022/01/28 06:54:27;;;;;;;16.13;4.30;;;5.20;99.90;;;;;;5144301;28;20217;-50
2022/01/28 06:56:58;;;;;;;18.70;4.20;;;5.20;99.90;;;;;;5157489;28;20439;-50
2022/01/28 06:59:29;;;;;;;29.47;5.20;;;5.20;99.90;;;;;;5158565;28;20183;-49
2022/01/28 07:01:59;;;;;;;18.43;3.40;;;5.10;99.90;;;;;;5142871;28;20198;-51
2022/01/28 07:04:30;;;;;;;27.83;4.37;;;5.20;99.90;;;;;;5156979;28;20685;-51
2022/01/28 07:07:00;;;;;;;23.73;3.33;;;5.20;99.90;;;;;;5156376;28;20203;-50
2022/01/28 07:09:31;;;;;;;14.00;4.30;;;5.10;99.90;;;;;;5155073;28;20738;-49
2022/01/28 07:12:03;;;;;;;13.67;3.43;;;5.20;99.90;;;;;;5139477;28;20208;-49
2022/01/28 07:14:33;;;;;;;18.53;3.80;;;5.20;99.90;;;;;;5156726;28;20220;-49
2022/01/28 07:17:04;;;;;;;12.33;3.80;;;5.10;99.90;;;;;;5161359;28;20445;-48
2022/01/28 07:19:34;;;;;;;23.47;4.80;;;5.10;99.90;;;;;;5162276;28;20206;-50
2022/01/28 07:22:05;;;;;;;26.03;3.13;;;5.10;99.90;;;;;;5154439;28;20464;-50
2022/01/28 07:24:36;;;;;;;34.37;4.90;;;5.10;99.90;;;;;;5160313;28;20245;-50
2022/01/28 07:27:07;;;;;;;9.87;2.97;;;5.00;99.90;;;;;;5138576;28;20478;-50
2022/01/28 07:29:37;;;;;;;18.00;3.87;;;5.00;99.90;;;;;;5152743;28;20198;-53
2022/01/28 07:32:08;;;;;;;26.47;4.47;;;5.00;99.90;;;;;;5150866;28;20232;-49
2022/01/28 07:34:39;;;;;;;16.57;3.93;;;5.10;99.90;;;;;;5122657;28;20208;-50
2022/01/28 07:37:11;;;;;;;21.63;3.27;;;5.00;99.90;;;;;;5138890;28;20446;-49
2022/01/28 07:39:42;;;;;;;18.00;5.00;;;5.00;99.90;;;;;;5158166;28;20223;-48
2022/01/28 07:42:12;;;;;;;23.00;4.23;;;4.90;99.90;;;;;;5148241;28;20581;-49
2022/01/28 07:44:43;;;;;;;17.10;3.73;;;4.90;99.90;;;;;;5150637;28;20213;-51
2022/01/28 07:47:13;;;;;;;29.53;3.60;;;4.80;99.90;;;;;;5142494;28;20182;-51
2022/01/28 07:49:44;;;;;;;25.43;3.93;;;4.80;99.90;;;;;;5132781;28;20233;-50
2022/01/28 07:52:15;;;;;;;22.60;4.23;;;4.90;99.90;;;;;;5141532;28;20216;-49
2022/01/28 07:54:49;;;;;;;21.60;4.80;;;4.80;99.90;;;;;;5159020;28;20255;-50
2022/01/28 07:57:19;;;;;;;24.77;4.40;;;4.90;99.90;;;;;;5155164;28;20208;-50
2022/01/28 07:59:50;;;;;;;22.63;3.87;;;4.90;99.90;;;;;;5137378;28;20437;-50
2022/01/28 08:02:20;;;;;;;18.57;3.73;;;4.80;99.90;;;;;;5122799;28;21184;-50
2022/01/28 08:04:51;;;;;;;19.20;4.30;;;4.80;99.90;;;;;;5158394;28;20233;-49
2022/01/28 08:07:22;;;;;;;22.47;4.80;;;4.70;99.90;;;;;;5152196;28;20185;-50
2022/01/28 08:09:53;;;;;;;12.90;3.43;;;4.70;99.90;;;;;;5156515;28;20630;-52
2022/01/28 08:12:23;;;;;;;18.73;4.60;;;4.70;99.90;;;;;;5147476;28;20459;-52
2022/01/28 08:14:54;;;;;;;38.87;5.20;;;4.70;99.90;;;;;;5136584;28;20249;-50
2022/01/28 08:17:24;;;;;;;41.03;4.23;;;4.70;99.90;;;;;;5159020;28;20198;-49
2022/01/28 08:19:55;;;;;;;16.00;4.53;;;4.70;99.90;;;;;;5135841;28;20190;-50
2022/01/28 08:22:26;;;;;;;22.00;3.90;;;4.70;99.90;;;;;;5149594;28;20595;-49
2022/01/28 08:24:56;;;;;;;16.73;4.03;;;4.70;99.90;;;;;;5160584;28;20257;-49
2022/01/28 08:27:27;;;;;;;23.60;4.67;;;4.70;99.90;;;;;;5138051;28;20175;-51
2022/01/28 08:29:57;;;;;;;38.13;5.07;;;4.60;99.90;;;;;;5156566;28;20646;-50
2022/01/28 08:32:28;;;;;;;18.37;4.93;;;4.70;99.90;;;;;;5129955;28;20204;-51
2022/01/28 08:34:58;;;;;;;30.33;4.67;;;4.70;99.90;;;;;;5135750;28;20198;-51
2022/01/28 08:37:29;;;;;;;37.63;4.73;;;4.70;99.90;;;;;;5153628;28;20269;-51
2022/01/28 08:40:00;;;;;;;30.97;5.10;;;4.70;99.90;;;;;;5143240;28;20184;-50
2022/01/28 08:42:31;;;;;;;23.53;4.67;;;4.70;99.90;;;;;;5142607;28;20647;-51
2022/01/28 08:45:03;;;;;;;26.60;4.97;;;4.80;99.90;;;;;;5154894;28;20470;-52
2022/01/28 08:47:33;;;;;;;21.70;3.80;;;4.70;99.90;;;;;;5148634;28;20180;-50
2022/01/28 08:50:04;;;;;;;22.13;4.83;;;4.80;99.90;;;;;;5157708;28;20475;-51
2022/01/28 08:52:35;;;;;;;26.63;3.70;;;4.80;99.90;;;;;;5155556;28;20210;-52
2022/01/28 08:55:06;;;;;;;21.70;3.87;;;4.90;99.90;;;;;;5136688;28;20455;-50
2022/01/28 08:57:43;;;;;;;23.23;4.53;;;4.90;99.90;;;;;;5133786;28;20281;-50
2022/01/28 09:00:17;;;;;;;15.97;4.13;;;4.80;99.90;;;;;;5151169;28;20520;-50
2022/01/28 09:02:49;;;;;;;16.20;3.53;;;4.80;99.90;;;;;;5152882;28;20596;-51
2022/01/28 09:05:19;;;;;;;29.37;5.03;;;4.90;99.90;;;;;;5151346;28;20442;-51
2022/01/28 09:07:51;;;;;;;31.83;4.87;;;4.90;99.90;;;;;;5140282;28;20501;-51
2022/01/28 09:10:29;;;;;;;16.93;4.47;;;4.90;99.90;;;;;;5135892;28;20229;-51
2022/01/28 09:15:39;;;;;;;21.80;4.80;;;5.00;99.90;;;;;;5157266;28;20517;-51
2022/01/28 09:18:09;;;;;;;19.23;4.57;;;5.00;99.90;;;;;;5142232;28;21062;-51
2022/01/28 09:20:41;;;;;;;12.90;4.10;;;5.00;99.90;;;;;;5157592;28;20453;-50
2022/01/28 09:23:12;;;;;;;20.33;4.20;;;5.10;99.90;;;;;;5160395;28;20316;-52
2022/01/28 09:25:43;;;;;;;21.47;3.50;;;5.10;99.90;;;;;;5138908;28;20831;-50
2022/01/28 09:28:14;;;;;;;25.57;4.80;;;5.20;99.90;;;;;;5142799;28;20454;-49
2022/01/28 09:30:45;;;;;;;26.30;5.00;;;5.20;99.90;;;;;;5163069;28;20443;-51
2022/01/28 09:33:15;;;;;;;14.83;4.00;;;5.20;99.90;;;;;;5145478;28;20476;-51
2022/01/28 09:35:46;;;;;;;20.13;3.67;;;5.30;99.90;;;;;;5159794;28;20505;-51
2022/01/28 09:38:17;;;;;;;21.17;4.20;;;5.30;99.90;;;;;;5155820;28;20188;-51
2022/01/28 09:40:49;;;;;;;19.47;4.30;;;5.30;99.90;;;;;;5132928;28;20207;-50
2022/01/28 09:43:20;;;;;;;19.73;3.90;;;5.50;99.90;;;;;;5153262;28;20978;-51
2022/01/28 09:45:50;;;;;;;13.10;2.77;;;5.50;99.90;;;;;;5159005;28;20450;-47
2022/01/28 09:48:22;;;;;;;17.37;4.23;;;5.60;99.90;;;;;;5153390;28;20215;-49
2022/01/28 09:50:53;;;;;;;30.27;4.00;;;5.60;99.90;;;;;;5159740;28;20644;-51
2022/01/28 09:53:24;;;;;;;15.80;4.57;;;5.60;99.90;;;;;;5155618;28;21287;-51
2022/01/28 09:55:55;;;;;;;16.77;3.77;;;5.70;99.90;;;;;;5157363;28;20485;-50
2022/01/28 09:58:26;;;;;;;15.23;3.77;;;5.90;99.90;;;;;;5144557;28;20236;-51
2022/01/28 10:00:57;;;;;;;16.10;3.77;;;6.20;99.90;;;;;;5126735;28;20955;-50
2022/01/28 10:03:27;;;;;;;14.23;3.07;;;6.40;99.90;;;;;;5156471;28;20707;-50
2022/01/28 10:05:58;;;;;;;19.87;3.73;;;6.60;99.90;;;;;;5151458;28;20205;-51
2022/01/28 10:08:28;;;;;;;26.33;3.93;;;6.80;99.90;;;;;;5133192;28;20189;-51
2022/01/28 10:11:16;;;;;;;16.03;3.17;;;6.80;99.90;;;;;;5146028;28;20211;-51
2022/01/28 10:16:25;;;;;;;26.10;3.70;;;6.70;99.90;;;;;;5160500;28;20551;-49
2022/01/28 10:19:04;;;;;;;17.33;5.07;;;6.60;99.90;;;;;;5159039;28;20202;-52
2022/01/28 10:21:40;;;;;;;18.17;4.00;;;6.60;99.90;;;;;;5140819;28;20455;-52
2022/01/28 10:24:18;;;;;;;27.07;3.80;;;6.50;99.90;;;;;;5142708;28;20566;-49
2022/01/28 10:27:08;;;;;;;18.83;4.43;;;6.50;99.90;;;;;;5157611;28;20776;-50
2022/01/28 10:29:42;;;;;;;19.07;3.70;;;6.60;99.90;;;;;;5125345;28;20498;-51
2022/01/28 10:32:15;;;;;;;14.43;3.33;;;6.50;99.90;;;;;;5153207;28;20523;-51
2022/01/28 10:34:50;;;;;;;11.00;3.20;;;6.40;99.90;;;;;;5151449;28;20438;-52
2022/01/28 10:37:25;;;;;;;17.63;3.80;;;6.50;99.90;;;;;;5140337;28;20443;-50
2022/01/28 10:40:01;;;;;;;9.73;4.17;;;6.50;99.90;;;;;;5153440;28;20645;-52
2022/01/28 10:42:48;;;;;;;24.07;4.60;;;6.50;99.90;;;;;;5158240;28;20444;-50
2022/01/28 10:45:21;;;;;;;23.30;7.00;;;6.30;99.90;;;;;;5152676;28;20463;-52
2022/01/28 10:47:56;;;;;;;21.40;5.40;;;6.10;99.90;;;;;;5153203;28;20524;-52
2022/01/28 10:50:29;;;;;;;28.17;5.63;;;6.10;99.90;;;;;;5140146;28;20443;-50
2022/01/28 10:53:03;;;;;;;23.70;5.40;;;6.20;99.90;;;;;;5157911;28;21124;-51
2022/01/28 10:55:36;;;;;;;16.10;4.00;;;6.30;99.90;;;;;;5161535;28;20479;-51
2022/01/28 10:58:08;;;;;;;19.40;4.00;;;6.40;99.90;;;;;;5122924;28;20931;-52
2022/01/28 11:00:43;;;;;;;14.60;4.30;;;6.50;99.90;;;;;;5144173;28;20895;-52
2022/01/28 11:03:16;;;;;;;27.07;5.53;;;6.40;99.90;;;;;;5142685;28;20483;-52
2022/01/28 11:05:47;;;;;;;16.70;3.87;;;6.30;99.90;;;;;;5144306;28;20446;-50
2022/01/28 11:08:17;;;;;;;23.43;4.50;;;6.30;99.90;;;;;;5144007;28;20458;-51
2022/01/28 11:10:48;;;;;;;21.93;4.20;;;6.30;99.90;;;;;;5162290;28;20327;-50
2022/01/28 11:13:18;;;;;;;30.13;6.07;;;6.20;99.90;;;;;;5162698;28;20269;-51
2022/01/28 11:15:49;;;;;;;19.57;4.60;;;6.10;99.90;;;;;;5157658;28;20300;-51
2022/01/28 11:18:20;;;;;;;12.43;2.87;;;6.20;99.90;;;;;;5156823;28;20798;-51
2022/01/28 11:20:55;;;;;;;15.20;3.53;;;6.30;99.90;;;;;;5141976;28;20681;-51
2022/01/28 11:23:40;;;;;;;27.67;3.57;;;6.30;99.90;;;;;;5155949;28;20478;-51
2022/01/28 11:26:29;;;;;;;23.13;4.57;;;6.50;99.90;;;;;;5144191;28;20549;-51
2022/01/28 11:29:02;;;;;;;15.83;4.10;;;6.80;99.90;;;;;;5158266;28;20435;-51
2022/01/28 11:31:45;;;;;;;28.03;4.00;;;7.00;99.90;;;;;;5160157;28;20967;-52
2022/01/28 11:34:19;;;;;;;15.00;2.80;;;7.00;99.90;;;;;;5146487;28;20550;-51
2022/01/28 11:36:52;;;;;;;14.27;3.50;;;7.00;99.90;;;;;;5138901;28;20437;-50
2022/01/28 11:39:30;;;;;;;20.57;5.30;;;7.20;99.90;;;;;;5159537;28;20467;-51
2022/01/28 11:42:17;;;;;;;22.43;5.13;;;7.20;99.90;;;;;;5160697;28;20920;-53
2022/01/28 11:44:50;;;;;;;28.23;3.43;;;7.30;99.90;;;;;;5134528;28;20472;-51
2022/01/28 11:47:24;;;;;;;16.67;3.77;;;7.20;99.90;;;;;;5141825;28;20855;-49
2022/01/28 11:50:17;;;;;;;15.80;3.83;;;7.00;99.90;;;;;;5132153;28;20444;-50
2022/01/28 11:52:52;;;;;;;12.27;3.33;;;6.90;99.90;;;;;;5140684;28;20931;-50
2022/01/28 11:55:26;;;;;;;17.43;2.90;;;7.00;99.90;;;;;;5131280;28;20424;-52
2022/01/28 11:58:04;;;;;;;16.57;2.70;;;7.10;99.90;;;;;;5146349;28;20441;-51
2022/01/28 12:00:47;;;;;;;17.07;3.40;;;7.10;99.90;;;;;;5149050;28;20449;-51
2022/01/28 12:03:23;;;;;;;13.83;3.13;;;7.20;99.90;;;;;;5196355;22;20623;-51
2022/01/28 12:05:56;;;;;;;21.83;4.70;;;7.20;99.90;;;;;;5206642;28;20909;-49
2022/01/28 12:08:30;;;;;;;7.50;3.13;;;7.40;99.90;;;;;;5205016;28;20446;-49
2022/01/28 12:11:07;;;;;;;17.40;3.37;;;7.40;99.80;;;;;;5190085;28;20812;-49
2022/01/28 12:13:53;;;;;;;8.70;2.90;;;7.30;99.90;;;;;;5167928;28;20806;-48
2022/01/28 12:16:30;;;;;;;10.70;3.10;;;7.20;99.90;;;;;;5161215;28;20439;-50
2022/01/28 12:19:02;;;;;;;8.10;2.90;;;7.30;99.90;;;;;;5181449;28;20446;-52
2022/01/28 12:21:34;;;;;;;11.10;3.20;;;7.50;99.90;;;;;;5178188;28;20443;-49
2022/01/28 12:24:20;;;;;;;8.57;2.90;;;7.70;98.70;;;;;;5175946;28;20463;-50
2022/01/28 12:27:03;;;;;;;17.13;5.00;;;7.70;99.80;;;;;;5178439;28;20498;-50
2022/01/28 12:29:35;;;;;;;15.77;4.50;;;7.70;99.90;;;;;;5178440;28;20441;-49
2022/01/28 12:32:06;;;;;;;10.10;4.20;;;7.90;99.40;;;;;;5195007;28;20914;-48
2022/01/28 12:34:45;;;;;;;14.97;3.50;;;7.70;99.00;;;;;;5165776;28;20542;-49
2022/01/28 12:37:21;;;;;;;20.13;4.13;;;7.70;99.50;;;;;;5178517;28;20272;-52
2022/01/28 12:39:59;;;;;;;15.20;3.83;;;7.60;99.20;;;;;;5188540;28;20474;-52
2022/01/28 12:42:32;;;;;;;7.00;2.87;;;7.30;99.90;;;;;;5166158;28;20436;-53
2022/01/28 12:45:03;;;;;;;30.57;10.10;;;7.20;99.90;;;;;;5173954;28;20470;-50
2022/01/28 12:47:34;;;;;;;8.83;4.20;;;7.10;99.90;;;;;;5172571;28;20512;-52
2022/01/28 12:50:05;;;;;;;23.27;9.77;;;7.10;99.90;;;;;;5157593;28;20200;-50
2022/01/28 12:52:36;;;;;;;12.00;4.40;;;7.30;99.90;;;;;;5163645;28;20203;-49
2022/01/28 12:55:09;;;;;;;9.03;2.50;;;7.40;99.90;;;;;;5163421;28;20527;-49
2022/01/28 12:57:45;;;;;;;8.93;3.03;;;7.30;99.90;;;;;;5172922;28;20192;-50
2022/01/28 13:00:16;;;;;;;9.37;3.90;;;7.30;99.90;;;;;;5171014;28;20427;-50
2022/01/28 13:02:50;;;;;;;19.37;6.10;;;7.10;99.90;;;;;;5180823;28;20958;-51
2022/01/28 13:05:33;;;;;;;14.30;3.07;;;6.90;99.90;;;;;;5168699;28;20462;-50
2022/01/28 13:10:53;;;;;;;9.90;2.70;;;6.90;99.90;;;;;;5186897;28;20460;-51
2022/01/28 13:13:23;;;;;;;18.30;2.93;;;6.80;99.90;;;;;;5167544;28;20863;-51
2022/01/28 13:15:54;;;;;;;30.87;3.13;;;6.70;99.90;;;;;;5149743;28;20682;-50
2022/01/28 13:18:25;;;;;;;7.40;2.63;;;6.60;99.90;;;;;;5185376;28;20334;-50
2022/01/28 13:20:55;;;;;;;25.50;3.87;;;6.60;99.90;;;;;;5166499;28;20195;-51
2022/01/28 13:23:33;;;;;;;7.77;3.70;;;6.60;99.90;;;;;;5182493;28;20224;-50
2022/01/28 13:26:04;;;;;;;20.13;4.00;;;6.50;99.90;;;;;;5183879;28;20179;-50
2022/01/28 13:28:35;;;;;;;7.27;2.80;;;6.50;99.90;;;;;;5168931;28;20443;-51
2022/01/28 13:31:06;;;;;;;14.93;4.03;;;6.40;99.90;;;;;;5184124;28;20825;-51
2022/01/28 13:33:37;;;;;;;12.87;4.17;;;6.40;99.90;;;;;;5171406;28;20208;-50
2022/01/28 13:36:07;;;;;;;18.13;3.77;;;6.40;99.90;;;;;;5169061;28;20755;-49
2022/01/28 13:38:40;;;;;;;17.10;4.13;;;6.30;99.90;;;;;;5165757;28;20256;-49
2022/01/28 13:41:27;;;;;;;5.80;2.77;;;6.30;99.90;;;;;;5185284;28;20242;-51
2022/01/28 13:44:00;;;;;;;16.37;3.20;;;6.30;99.90;;;;;;5181652;28;20494;-48
2022/01/28 13:46:34;;;;;;;15.50;2.83;;;6.30;99.90;;;;;;5169498;28;20454;-50
2022/01/28 13:49:15;;;;;;;9.60;3.17;;;6.30;99.90;;;;;;5165526;28;20452;-51
2022/01/28 13:51:45;;;;;;;16.40;2.20;;;6.30;99.90;;;;;;5169194;28;20445;-50
2022/01/28 13:54:18;;;;;;;13.20;3.37;;;6.30;99.90;;;;;;5183674;28;20969;-50
2022/01/28 13:56:48;;;;;;;9.47;2.83;;;6.30;99.90;;;;;;5166362;28;20767;-51
2022/01/28 13:59:23;;;;;;;10.13;2.47;;;6.20;99.90;;;;;;5181555;28;20513;-50
2022/01/28 14:01:56;;;;;;;8.07;2.50;;;6.30;99.90;;;;;;5183065;28;20220;-49
2022/01/28 14:04:35;;;;;;;9.83;3.03;;;6.20;99.90;;;;;;5167817;28;20477;-50
2022/01/28 14:07:20;;;;;;;12.33;2.53;;;6.30;99.90;;;;;;5180878;28;20438;-49
2022/01/28 14:09:55;;;;;;;8.70;2.70;;;6.20;99.90;;;;;;5186239;28;20430;-51
2022/01/28 14:12:52;;;;;;;5.00;2.20;;;6.20;99.90;;;;;;5164620;28;20435;-50
2022/01/28 14:15:39;;;;;;;14.17;3.83;;;6.20;99.90;;;;;;5164478;28;20444;-50
2022/01/28 14:18:09;;;;;;;7.27;1.70;;;6.20;99.90;;;;;;5155510;28;20501;-52
2022/01/28 14:20:40;;;;;;;6.73;2.87;;;6.30;99.90;;;;;;5169575;28;20609;-53
2022/01/28 14:23:12;;;;;;;5.70;1.90;;;6.20;99.90;;;;;;5159074;28;20294;-52
2022/01/28 14:25:43;;;;;;;6.80;2.30;;;6.20;99.90;;;;;;5185833;28;20234;-50
2022/01/28 14:31:06;;;;;;;5.03;1.97;;;6.20;99.90;;;;;;5180305;28;20196;-50
2022/01/28 14:33:36;;;;;;;18.13;3.10;;;6.10;99.90;;;;;;5165764;28;20568;-50
2022/01/28 14:36:07;;;;;;;10.50;2.90;;;6.10;99.90;;;;;;5164701;28;20569;-49
2022/01/28 14:38:38;;;;;;;11.27;3.67;;;6.10;99.90;;;;;;5186364;28;20197;-49
2022/01/28 14:41:10;;;;;;;17.90;4.53;;;6.10;99.90;;;;;;5178296;28;20282;-50
2022/01/28 14:43:41;;;;;;;12.13;4.27;;;6.00;99.90;;;;;;5170097;28;20761;-50
2022/01/28 14:46:11;;;;;;;6.83;1.77;;;5.90;99.90;;;;;;5183288;28;20459;-50
2022/01/28 14:48:42;;;;;;;9.23;2.50;;;5.90;99.90;;;;;;5181461;28;20454;-51
2022/01/28 14:51:13;;;;;;;12.67;2.17;;;5.90;99.90;;;;;;5170011;28;20184;-50